createdAt,value
2022-08-25T00:01:57.332Z,98683.16
2022-08-25T00:07:19.579Z,98683.97
2022-08-25T00:12:41.820Z,98676.50
2022-08-25T00:18:05.357Z,98685.13
2022-08-25T00:23:38.534Z,98673.91
2022-08-25T00:29:01.613Z,98674.06
2022-08-25T00:34:31.446Z,98675.84
2022-08-25T00:39:55.026Z,98680.03
2022-08-25T00:45:18.113Z,98677.41
2022-08-25T00:50:39.973Z,98681.78
2022-08-25T00:56:02.576Z,98677.41
2022-08-25T01:01:24.511Z,98673.53
2022-08-25T01:06:49.030Z,98671.22
2022-08-25T01:12:10.790Z,98667.16
2022-08-25T01:17:45.550Z,98662.81
2022-08-25T01:23:07.967Z,98650.91
2022-08-25T01:28:30.206Z,98656.91
2022-08-25T01:33:52.397Z,98658.91
2022-08-25T01:39:15.764Z,98665.13
2022-08-25T01:44:41.581Z,98664.41
2022-08-25T01:50:06.093Z,98672.19
2022-08-25T01:55:27.861Z,98666.16
2022-08-25T02:00:51.788Z,98667.41
2022-08-25T02:06:20.479Z,98656.22
2022-08-25T02:11:50.817Z,98665.44
2022-08-25T02:17:12.541Z,98663.25
2022-08-25T02:22:34.344Z,98668.00
2022-08-25T02:27:56.292Z,98665.81
2022-08-25T02:33:18.038Z,98660.56
2022-08-25T02:38:41.682Z,98668.91
2022-08-25T02:44:04.531Z,98668.69
2022-08-25T02:49:26.275Z,98661.31
2022-08-25T02:54:48.007Z,98661.16
2022-08-25T03:00:12.745Z,98660.44
2022-08-25T03:05:34.628Z,98662.84
2022-08-25T03:10:56.364Z,98658.91
2022-08-25T03:16:18.711Z,98651.47
2022-08-25T03:21:40.574Z,98644.09
2022-08-25T03:27:02.332Z,98658.94
2022-08-25T03:32:24.064Z,98657.59
2022-08-25T03:37:45.765Z,98655.97
2022-08-25T03:43:07.505Z,98650.63
2022-08-25T03:48:29.463Z,98649.91
2022-08-25T03:53:51.381Z,98649.94
2022-08-25T03:59:13.821Z,98640.13
2022-08-25T04:04:35.582Z,98642.28
2022-08-25T04:09:57.272Z,98645.06
2022-08-25T04:15:18.958Z,98638.97
2022-08-25T04:20:46.413Z,98644.56
2022-08-25T04:26:14.328Z,98649.94
2022-08-25T04:31:38.564Z,98655.75
2022-08-25T04:37:02.495Z,98644.06
2022-08-25T04:42:26.296Z,98643.75
2022-08-25T04:47:50.668Z,98653.06
2022-08-25T04:53:16.851Z,98649.66
2022-08-25T04:58:39.265Z,98647.56
2022-08-25T05:04:03.859Z,98659.88
2022-08-25T05:09:26.683Z,98668.00
2022-08-25T05:14:48.501Z,98658.84
2022-08-25T05:20:10.654Z,98651.28
2022-08-25T05:25:32.837Z,98636.34
2022-08-25T05:30:58.773Z,98642.03
2022-08-25T05:36:21.870Z,98650.56
2022-08-25T05:41:44.133Z,98647.50
2022-08-25T05:47:06.416Z,98648.84
2022-08-25T05:52:28.417Z,98634.34
2022-08-25T05:57:50.268Z,98628.59
2022-08-25T06:03:12.396Z,98628.00
2022-08-25T06:08:34.780Z,98621.72
2022-08-25T06:13:57.670Z,98620.31
2022-08-25T06:19:19.711Z,98637.06
2022-08-25T06:24:41.433Z,98633.09
2022-08-25T06:30:07.875Z,98635.06
2022-08-25T06:35:29.984Z,98629.59
2022-08-25T06:40:52.333Z,98622.66
2022-08-25T06:46:17.698Z,98626.25
2022-08-25T06:51:39.716Z,98627.84
2022-08-25T06:57:01.748Z,98623.06
2022-08-25T07:02:23.665Z,98612.44
2022-08-25T07:07:46.409Z,98611.38
2022-08-25T07:13:08.134Z,98594.72
2022-08-25T07:18:30.110Z,98605.34
2022-08-25T07:23:52.461Z,98602.38
2022-08-25T07:29:20.834Z,98598.50
2022-08-25T07:35:12.580Z,98582.81
2022-08-25T07:40:38.144Z,98581.28
2022-08-25T07:46:06.849Z,98584.09
2022-08-25T07:51:28.720Z,98583.25
2022-08-25T07:56:50.445Z,98593.25
2022-08-25T08:02:18.902Z,98588.94
2022-08-25T08:07:43.199Z,98582.16
2022-08-25T08:13:07.360Z,98580.81
2022-08-25T08:18:29.471Z,98582.03
2022-08-25T08:23:56.668Z,98586.50
2022-08-25T08:29:22.433Z,98576.69
2022-08-25T08:34:44.281Z,98570.19
2022-08-25T08:40:07.621Z,98568.19
2022-08-25T08:45:43.985Z,98557.69
2022-08-25T08:51:11.135Z,98562.00
2022-08-25T08:56:45.205Z,98551.47
2022-08-25T09:02:38.607Z,98551.63
2022-08-25T09:08:10.478Z,98546.13
2022-08-25T09:13:44.791Z,98543.78
2022-08-25T09:19:31.329Z,98544.09
2022-08-25T09:31:32.499Z,98523.16
2022-08-25T09:36:54.249Z,98513.94
2022-08-25T09:42:23.750Z,98518.56
2022-08-25T09:47:46.109Z,98515.00
2022-08-25T09:53:17.049Z,98509.78
2022-08-25T09:58:39.426Z,98502.56
2022-08-25T10:04:05.120Z,98511.00
2022-08-25T10:09:34.720Z,98498.03
2022-08-25T10:14:56.779Z,98485.44
2022-08-25T10:20:25.056Z,98481.78
2022-08-25T10:25:59.462Z,98481.22
2022-08-25T10:31:36.831Z,98470.97
2022-08-25T10:37:32.641Z,98469.41
2022-08-25T10:43:12.871Z,98458.53
2022-08-25T10:48:50.562Z,98446.34
2022-08-25T10:54:39.113Z,98431.78
2022-08-25T11:00:14.368Z,98434.44
2022-08-25T11:05:46.466Z,98437.88
2022-08-25T11:11:32.284Z,98428.63
2022-08-25T11:17:10.520Z,98415.97
2022-08-25T11:22:41.640Z,98415.31
2022-08-25T11:28:07.321Z,98407.53
2022-08-25T11:33:31.031Z,98392.41
2022-08-25T11:39:16.635Z,98397.31
2022-08-25T11:44:51.791Z,98393.25
2022-08-25T11:50:31.176Z,98387.88
2022-08-25T11:55:56.111Z,98387.16
2022-08-25T12:01:40.145Z,98374.47
2022-08-25T12:07:11.011Z,98377.88
2022-08-25T12:12:37.596Z,98381.25
2022-08-25T12:18:40.040Z,98372.97
2022-08-25T12:24:12.864Z,98372.03
2022-08-25T12:29:46.118Z,98361.34
2022-08-25T12:35:37.334Z,98364.34
2022-08-25T12:41:12.109Z,98351.53
2022-08-25T12:46:38.543Z,98352.56
2022-08-25T12:52:16.499Z,98356.50
2022-08-25T12:57:57.748Z,98344.59
2022-08-25T13:09:42.540Z,98342.53
2022-08-25T13:15:04.835Z,98335.56
2022-08-25T13:20:29.073Z,98330.19
2022-08-25T13:25:52.990Z,98323.03
2022-08-25T13:31:19.704Z,98313.53
2022-08-25T13:37:05.774Z,98313.13
2022-08-25T13:42:29.054Z,98312.97
2022-08-25T13:48:20.795Z,98309.50
2022-08-25T13:53:35.082Z,98296.88
2022-08-25T13:58:59.680Z,98299.34
2022-08-25T14:04:50.480Z,98282.44
2022-08-25T14:10:32.511Z,98288.63
2022-08-25T14:15:54.721Z,98292.75
2022-08-25T14:21:20.252Z,98286.16
2022-08-25T14:26:54.500Z,98289.03
2022-08-25T14:32:17.110Z,98282.03
2022-08-25T14:37:39.022Z,98279.31
2022-08-25T14:43:02.523Z,98277.88
2022-08-25T14:48:31.662Z,98269.19
2022-08-25T14:53:56.570Z,98266.75
2022-08-25T14:59:18.580Z,98261.13
2022-08-25T15:04:40.463Z,98249.78
2022-08-25T15:10:13.634Z,98251.84
2022-08-25T15:15:40.086Z,98239.25
2022-08-25T15:21:14.545Z,98250.63
2022-08-25T15:26:59.259Z,98242.75
2022-08-25T15:32:20.995Z,98247.25
2022-08-25T15:37:42.918Z,98247.47
2022-08-25T15:43:05.628Z,98234.47
2022-08-25T15:48:28.878Z,98241.47
2022-08-25T15:53:50.712Z,98226.81
2022-08-25T15:59:13.523Z,98226.19
2022-08-25T16:04:36.242Z,98221.66
2022-08-25T16:09:59.112Z,98230.56
2022-08-25T16:15:23.834Z,98224.13
2022-08-25T16:20:50.837Z,98225.81
2022-08-25T16:26:13.025Z,98224.13
2022-08-25T16:31:35.058Z,98221.84
2022-08-25T16:36:56.874Z,98211.31
2022-08-25T16:42:20.722Z,98212.53
2022-08-25T16:47:43.312Z,98212.38
2022-08-25T16:53:23.964Z,98208.03
2022-08-25T16:58:45.929Z,98207.19
2022-08-25T17:04:09.187Z,98207.00
2022-08-25T17:09:32.056Z,98198.94
2022-08-25T17:14:54.254Z,98209.69
2022-08-25T17:20:17.162Z,98208.22
2022-08-25T17:25:41.248Z,98200.16
2022-08-25T17:31:05.109Z,98200.78
2022-08-25T17:36:27.558Z,98203.84
2022-08-25T17:41:50.518Z,98209.22
2022-08-25T17:47:12.527Z,98207.94
2022-08-25T17:52:34.356Z,98213.28
2022-08-25T17:57:56.292Z,98212.03
2022-08-25T18:03:19.354Z,98215.91
2022-08-25T18:08:43.393Z,98217.34
2022-08-25T18:14:05.126Z,98226.56
2022-08-25T18:19:26.952Z,98232.50
2022-08-25T18:24:48.710Z,98235.38
2022-08-25T18:30:10.972Z,98231.38
2022-08-25T18:35:32.966Z,98242.06
2022-08-25T18:40:56.793Z,98241.34
2022-08-25T18:46:18.921Z,98233.47
2022-08-25T18:51:45.908Z,98249.50
2022-08-25T18:57:08.271Z,98243.25
2022-08-25T19:02:30.863Z,98243.22
2022-08-25T19:07:52.805Z,98249.34
2022-08-25T19:13:14.769Z,98251.34
2022-08-25T19:18:36.625Z,98250.66
2022-08-25T19:23:59.429Z,98255.75
2022-08-25T19:29:21.561Z,98254.88
2022-08-25T19:34:47.195Z,98261.97
2022-08-25T19:40:13.349Z,98264.94
2022-08-25T19:45:40.996Z,98262.34
2022-08-25T19:51:03.326Z,98255.25
2022-08-25T19:56:25.155Z,98262.25
2022-08-25T20:01:49.277Z,98263.28
2022-08-25T20:07:12.343Z,98267.91
2022-08-25T20:12:35.488Z,98278.91
2022-08-25T20:17:57.999Z,98274.31
2022-08-25T20:23:38.440Z,98273.94
2022-08-25T20:29:00.534Z,98281.69
2022-08-25T20:34:22.504Z,98290.53
2022-08-25T20:39:45.790Z,98288.78
2022-08-25T20:45:08.740Z,98289.22
2022-08-25T20:50:30.600Z,98288.22
2022-08-25T20:55:53.151Z,98296.88
2022-08-25T21:01:23.035Z,98295.97
2022-08-25T21:06:45.761Z,98305.47
2022-08-25T21:12:07.638Z,98296.25
2022-08-25T21:17:30.071Z,98304.63
2022-08-25T21:22:53.258Z,98311.91
2022-08-25T21:28:15.187Z,98310.69
2022-08-25T21:33:37.302Z,98313.75
2022-08-25T21:39:00.234Z,98315.22
2022-08-25T21:44:22.345Z,98325.81
2022-08-25T21:49:44.086Z,98324.94
2022-08-25T21:55:06.328Z,98318.41
2022-08-25T22:00:30.710Z,98314.56
2022-08-25T22:05:52.754Z,98310.53
2022-08-25T22:11:16.313Z,98318.47
2022-08-25T22:16:39.263Z,98310.72
2022-08-25T22:22:01.445Z,98310.47
2022-08-25T22:27:23.757Z,98306.19
2022-08-25T22:32:45.696Z,98311.66
2022-08-25T22:38:08.277Z,98310.19
2022-08-25T22:43:34.403Z,98308.09
2022-08-25T22:48:56.458Z,98307.88
2022-08-25T22:54:19.300Z,98310.03
2022-08-25T22:59:41.079Z,98303.06
2022-08-25T23:05:03.662Z,98301.28
2022-08-25T23:10:28.085Z,98298.03
2022-08-25T23:15:51.054Z,98295.53
2022-08-25T23:21:37.914Z,98293.03
2022-08-25T23:27:06.547Z,98285.84
2022-08-25T23:32:29.106Z,98283.13
2022-08-25T23:37:51.381Z,98284.31
2022-08-25T23:43:13.581Z,98283.78
2022-08-25T23:48:35.612Z,98286.59
2022-08-25T23:53:57.753Z,98284.53
2022-08-25T23:59:24.510Z,98276.16
